Terminal Aerodrome Forecast
Issued by NWS

Home | Current Version | Previous Version | Text Only | Print | Product List | Glossary On
Versions: 1 2 3 4 5 6 7 8 9 10 11 12 13 14 15 16 17 18
000
FTUS43 KAPX 281734
TAFPLN
TAF
KPLN 281734Z 2818/2918 21011KT P6SM BKN200
     FM281900 21011KT P6SM VCSH SCT040 OVC110
     FM282300 16010KT 5SM SHRA OVC025
     FM290300 15011KT 4SM SHRA VCTS OVC025CB
     FM290500 18012KT 4SM SHRA VCTS OVC022CB
     FM290800 21011KT 5SM SHRA VCTS OVC015CB
     FM290900 21010KT P6SM -SHRA OVC015
     FM291200 23011KT P6SM BKN015
     FM291400 23012KT P6SM OVC025=

USA.gov is the U.S. government's official web portal to all federal, state and local government web resources and services.